Time;durP1;ratioP1;P1;durP2;ratioP2;P2;SDS_P1;SDS_P2;PMS_P1;PMS_P2;Temp;Humidity;BMP_temperature;BMP_pressure;BME280_temperature;BME280_humidity;BME280_pressure;Samples;Min_cycle;Max_cycle;Signal;HPM_P1;HPM_P2
2023/08/12 00:01:00;;;;;;;6.35;1.95;;;;;;;17.05;66.00;94502.28;5026764;28;20320;-79
2023/08/12 00:03:25;;;;;;;3.63;2.28;;;;;;;17.02;66.23;94495.66;5026738;28;20045;-79
2023/08/12 00:05:52;;;;;;;5.80;2.50;;;;;;;17.02;66.17;94492.19;5026379;28;20354;-79
2023/08/12 00:08:17;;;;;;;4.22;2.22;;;;;;;17.00;66.11;94500.59;5026365;28;20049;-79
2023/08/12 00:10:43;;;;;;;4.13;2.30;;;;;;;16.96;66.23;94502.41;5026506;28;20084;-79
2023/08/12 00:13:09;;;;;;;8.05;2.42;;;;;;;16.95;66.24;94498.13;5026596;28;20041;-79
2023/08/12 00:15:34;;;;;;;3.83;2.13;;;;;;;16.96;67.35;94502.41;5026472;28;20026;-79
2023/08/12 00:18:00;;;;;;;4.53;2.78;;;;;;;16.94;67.21;94499.25;5026153;28;20029;-79
2023/08/12 00:20:25;;;;;;;4.95;2.35;;;;;;;16.90;66.51;94498.38;5026370;28;20320;-79
2023/08/12 00:22:51;;;;;;;6.35;2.50;;;;;;;16.89;66.54;94498.69;5024973;28;20338;-79
2023/08/12 00:25:16;;;;;;;4.18;2.58;;;;;;;16.89;66.96;94491.41;5026224;28;20041;-79
2023/08/12 00:27:42;;;;;;;5.10;2.22;;;;;;;16.86;67.10;94486.69;5026168;28;20036;-79
2023/08/12 00:30:08;;;;;;;3.10;2.25;;;;;;;16.83;66.77;94495.44;5026262;28;20089;-79
2023/08/12 00:32:34;;;;;;;5.55;2.67;;;;;;;16.80;66.86;94496.88;5025041;28;20268;-79
2023/08/12 00:34:59;;;;;;;3.60;2.42;;;;;;;16.75;67.31;94489.03;5026063;28;20029;-80
2023/08/12 00:37:25;;;;;;;6.30;2.20;;;;;;;16.75;67.58;94488.22;5024877;28;20018;-79
2023/08/12 00:39:50;;;;;;;4.70;2.88;;;;;;;16.79;66.87;94497.19;5025803;28;20324;-79
2023/08/12 00:42:15;;;;;;;3.83;2.30;;;;;;;16.76;66.13;94489.81;5025853;28;20021;-79
2023/08/12 00:44:41;;;;;;;8.82;2.35;;;;;;;16.70;66.40;94486.56;5026062;28;20024;-79
2023/08/12 00:47:07;;;;;;;6.40;2.45;;;;;;;16.68;66.63;94488.03;5025768;28;20231;-79
2023/08/12 00:49:33;;;;;;;4.95;2.40;;;;;;;16.68;66.40;94485.31;5024568;28;20029;-79
2023/08/12 00:51:59;;;;;;;5.18;2.33;;;;;;;16.67;66.56;94486.44;5025713;28;20022;-79
2023/08/12 00:54:26;;;;;;;5.38;2.75;;;;;;;16.67;66.38;94491.81;5025665;28;20076;-79
2023/08/12 00:56:53;;;;;;;5.50;2.08;;;;;;;16.70;66.18;94480.38;5025583;28;20018;-79
2023/08/12 00:59:20;;;;;;;3.35;2.20;;;;;;;16.69;66.21;94484.19;5025525;28;20084;-79
2023/08/12 01:01:47;;;;;;;4.40;2.28;;;;;;;16.67;66.29;94486.44;5024482;28;20227;-79
2023/08/12 01:04:12;;;;;;;5.28;3.08;;;;;;;16.65;66.48;94484.88;5025637;28;20030;-79
2023/08/12 01:06:38;;;;;;;5.45;2.00;;;;;;;16.65;66.81;94482.19;5025370;28;20068;-79
2023/08/12 01:09:07;;;;;;;4.72;2.40;;;;;;;16.67;66.61;94484.56;5024565;28;20026;-79
2023/08/12 01:11:37;;;;;;;3.75;2.40;;;;;;;16.67;66.39;94481.06;5024908;28;20022;-79
2023/08/12 01:14:22;;;;;;;5.65;2.50;;;;;;;16.62;66.42;94474.00;5025387;28;20021;-79
2023/08/12 01:16:51;;;;;;;4.93;2.47;;;;;;;16.65;65.98;94470.66;5023901;28;20106;-79
2023/08/12 01:19:44;;;;;;;4.18;2.50;;;;;;;16.64;65.90;94477.91;5025297;28;20101;-79
2023/08/12 01:22:11;;;;;;;7.13;2.13;;;;;;;16.63;66.16;94467.50;5024797;28;20049;-79
2023/08/12 01:24:44;;;;;;;5.00;2.05;;;;;;;16.60;65.82;94477.00;5025199;28;20336;-79
2023/08/12 01:27:11;;;;;;;4.15;2.33;;;;;;;16.60;65.80;94471.63;5025193;28;20029;-79
2023/08/12 01:29:43;;;;;;;3.80;2.42;;;;;;;16.63;65.32;94475.56;5024933;28;20286;-79
2023/08/12 01:32:25;;;;;;;6.57;2.45;;;;;;;16.61;65.46;94470.53;5025142;28;20022;-79
2023/08/12 01:35:03;;;;;;;3.33;1.90;;;;;;;16.63;65.23;94470.97;5024894;28;20026;-79
2023/08/12 01:37:30;;;;;;;3.92;2.35;;;;;;;16.60;65.22;94460.09;5025026;28;20021;-79
2023/08/12 01:40:00;;;;;;;5.03;2.30;;;;;;;16.61;65.64;94467.06;5024842;28;20096;-79
2023/08/12 01:42:26;;;;;;;3.47;2.40;;;;;;;16.56;65.06;94469.94;5024729;28;20081;-79
2023/08/12 01:44:52;;;;;;;4.07;1.80;;;;;;;16.50;65.46;94461.31;5024567;28;20045;-79
2023/08/12 01:47:17;;;;;;;4.55;2.55;;;;;;;16.45;65.10;94469.63;5024693;28;20068;-79
2023/08/12 01:49:42;;;;;;;3.38;2.03;;;;;;;16.43;65.76;94472.63;5024908;28;20026;-79
2023/08/12 01:52:08;;;;;;;4.97;2.28;;;;;;;16.37;65.52;94473.97;5024574;28;20312;-79
2023/08/12 01:54:34;;;;;;;5.57;2.10;;;;;;;16.35;65.85;94475.44;5024346;28;20037;-79
2023/08/12 01:57:01;;;;;;;8.55;2.30;;;;;;;16.32;66.10;94473.41;5024405;28;20026;-79
2023/08/12 01:59:27;;;;;;;5.55;2.33;;;;;;;16.29;65.80;94471.41;5024491;28;20028;-79
2023/08/12 02:01:52;;;;;;;5.10;2.22;;;;;;;16.24;65.21;94467.00;5024532;28;20017;-79
2023/08/12 02:04:18;;;;;;;5.72;2.15;;;;;;;16.22;65.58;94467.34;5024300;28;20093;-78
2023/08/12 02:06:43;;;;;;;3.85;2.22;;;;;;;16.21;64.83;94473.06;5024350;28;20103;-79
2023/08/12 02:09:08;;;;;;;4.22;2.03;;;;;;;16.16;64.50;94479.44;5024385;28;20323;-79
2023/08/12 02:11:34;;;;;;;16.27;2.22;;;;;;;16.14;64.80;94473.59;5024219;28;20029;-79
2023/08/12 02:13:59;;;;;;;5.75;1.90;;;;;;;16.13;64.94;94472.03;5023055;28;20197;-79
2023/08/12 02:16:25;;;;;;;2.97;2.00;;;;;;;16.15;65.34;94466.31;5023944;28;20022;-79
2023/08/12 02:18:50;;;;;;;3.65;1.98;;;;;;;16.17;65.60;94472.16;5022983;28;20194;-79
2023/08/12 02:21:15;;;;;;;8.77;2.47;;;;;;;16.14;65.62;94470.91;5023848;28;20026;-79
2023/08/12 02:23:41;;;;;;;4.05;2.10;;;;;;;16.12;65.14;94462.41;5024170;28;20022;-79
2023/08/12 02:26:06;;;;;;;3.28;1.60;;;;;;;16.01;64.89;94466.63;5023519;28;20028;-79
2023/08/12 02:28:32;;;;;;;3.35;1.98;;;;;;;16.05;64.86;94467.53;5023730;28;20063;-78
2023/08/12 02:30:57;;;;;;;6.00;2.50;;;;;;;16.00;64.68;94470.44;5023855;28;20315;-79
2023/08/12 02:33:22;;;;;;;4.32;2.30;;;;;;;16.04;65.00;94471.34;5023833;28;20041;-79
2023/08/12 02:35:48;;;;;;;3.05;1.95;;;;;;;16.05;64.83;94467.53;5023626;28;20018;-79
2023/08/12 02:38:13;;;;;;;5.00;1.85;;;;;;;16.07;64.96;94467.97;5023698;28;20072;-79
2023/08/12 02:40:39;;;;;;;4.03;2.05;;;;;;;16.05;64.64;94465.63;5023781;28;20026;-79
2023/08/12 02:43:04;;;;;;;3.40;1.77;;;;;;;16.06;63.98;94477.19;5023662;28;20328;-79
2023/08/12 02:45:29;;;;;;;3.13;1.75;;;;;;;16.03;63.93;94475.91;5022414;28;20037;-79
2023/08/12 02:47:55;;;;;;;4.35;1.95;;;;;;;16.08;63.86;94477.63;5023525;28;20239;-79
2023/08/12 02:50:20;;;;;;;4.43;2.20;;;;;;;16.10;63.75;94479.97;5023499;28;20026;-79
2023/08/12 02:52:46;;;;;;;3.20;2.00;;;;;;;16.09;63.90;94471.13;5020856;28;20037;-79
2023/08/12 02:55:12;;;;;;;3.58;1.98;;;;;;;16.09;63.79;94475.72;5022484;28;20140;-79
2023/08/12 02:57:37;;;;;;;4.25;1.90;;;;;;;16.11;63.52;94478.84;5022226;28;20271;-79
2023/08/12 03:00:04;;;;;;;5.43;2.20;;;;;;;16.06;64.10;94485.25;5022217;28;20040;-79
2023/08/12 03:02:29;;;;;;;3.08;1.73;;;;;;;16.02;64.00;94485.13;5022240;28;20320;-79
2023/08/12 03:04:55;;;;;;;6.15;1.63;;;;;;;16.02;64.06;94482.44;5023289;28;20072;-79
2023/08/12 03:07:20;;;;;;;4.10;2.17;;;;;;;15.99;64.11;94491.13;5023406;28;20118;-79
2023/08/12 03:09:45;;;;;;;4.05;1.55;;;;;;;15.97;64.80;94481.84;5023161;28;20049;-78
2023/08/12 03:12:11;;;;;;;8.02;2.50;;;;;;;15.97;64.58;94492.59;5023156;28;20059;-79
2023/08/12 03:14:36;;;;;;;3.28;1.95;;;;;;;16.01;64.69;94494.28;5023282;28;20161;-78
2023/08/12 03:17:02;;;;;;;6.78;2.33;;;;;;;16.04;65.09;94484.78;5023048;28;20010;-79
2023/08/12 03:19:27;;;;;;;7.82;2.10;;;;;;;16.08;66.11;94491.06;5021961;28;20022;-79
2023/08/12 03:21:53;;;;;;;4.22;2.20;;;;;;;16.06;66.08;94490.63;5023022;28;20212;-79
2023/08/12 03:24:18;;;;;;;3.92;2.08;;;;;;;16.14;66.14;94491.63;5023109;28;20022;-79
2023/08/12 03:26:44;;;;;;;8.00;2.13;;;;;;;16.13;65.67;94485.47;5022903;28;20076;-79
2023/08/12 03:29:09;;;;;;;5.63;2.00;;;;;;;16.09;65.78;94489.16;5023339;28;20048;-78
2023/08/12 03:31:34;;;;;;;4.47;2.28;;;;;;;16.03;66.43;94488.56;5022992;28;20072;-79
2023/08/12 03:34:00;;;;;;;4.32;2.15;;;;;;;16.01;65.83;94496.97;5022406;28;20032;-79
2023/08/12 03:36:26;;;;;;;7.80;2.47;;;;;;;15.99;65.75;94484.97;5022901;28;20018;-79
2023/08/12 03:38:51;;;;;;;5.47;2.65;;;;;;;15.88;67.32;94499.97;5022780;28;20050;-79
2023/08/12 03:41:17;;;;;;;5.72;2.90;;;;;;;15.83;67.65;94504.44;5022863;28;20022;-79
2023/08/12 03:43:42;;;;;;;8.25;2.50;;;;;;;15.80;68.04;94494.34;5022974;28;20072;-79
2023/08/12 03:46:08;;;;;;;4.65;2.70;;;;;;;15.88;68.47;94491.91;5021752;28;20279;-79
2023/08/12 03:48:33;;;;;;;6.57;3.00;;;;;;;15.91;68.92;94499.28;5022879;28;20045;-79
2023/08/12 03:50:59;;;;;;;4.63;2.90;;;;;;;15.88;69.34;94506.13;5022810;28;20197;-79
2023/08/12 03:53:24;;;;;;;6.50;2.50;;;;;;;15.82;69.02;94502.84;5022968;28;20056;-79
2023/08/12 03:55:49;;;;;;;5.30;2.45;;;;;;;15.84;68.87;94507.91;5022738;28;20018;-78
2023/08/12 03:58:15;;;;;;;5.88;2.47;;;;;;;15.81;68.74;94509.34;5022679;28;20212;-79
2023/08/12 04:00:43;;;;;;;5.63;2.20;;;;;;;15.88;67.08;94502.66;5022793;28;20028;-79
2023/08/12 04:03:09;;;;;;;3.55;2.35;;;;;;;15.97;65.96;94506.81;5022891;28;20026;-80
2023/08/12 04:05:34;;;;;;;4.10;2.30;;;;;;;16.04;66.17;94503.59;5022746;28;20026;-79
2023/08/12 04:08:00;;;;;;;8.18;2.78;;;;;;;16.04;66.61;94498.22;5022597;28;20022;-79
2023/08/12 04:10:25;;;;;;;4.60;2.60;;;;;;;16.11;67.12;94503.06;5022606;28;20050;-79
2023/08/12 04:12:51;;;;;;;10.32;3.47;;;;;;;16.14;67.07;94497.81;5022437;28;20028;-79
2023/08/12 04:15:16;;;;;;;6.68;2.65;;;;;;;16.19;66.29;94500.28;5022717;28;20018;-79
2023/08/12 04:17:42;;;;;;;4.55;2.33;;;;;;;16.32;65.19;94508.38;5021470;28;20259;-79
2023/08/12 04:20:08;;;;;;;3.45;2.00;;;;;;;16.42;64.34;94507.94;5022622;28;20286;-79
2023/08/12 04:22:34;;;;;;;6.72;2.30;;;;;;;16.44;64.06;94503.81;5022574;28;20137;-79
2023/08/12 04:24:59;;;;;;;5.20;2.10;;;;;;;16.48;64.18;94503.13;5022302;28;20311;-80
2023/08/12 04:27:25;;;;;;;8.38;2.88;;;;;;;16.60;63.80;94505.84;5022391;28;20045;-79
2023/08/12 04:29:50;;;;;;;3.65;2.22;;;;;;;16.57;63.47;94506.53;5022590;28;20097;-80
2023/08/12 04:32:16;;;;;;;5.57;2.60;;;;;;;16.60;63.54;94509.31;5022579;28;20339;-79
2023/08/12 04:34:41;;;;;;;9.85;2.22;;;;;;;16.67;62.91;94510.66;5022650;28;20100;-80
2023/08/12 04:37:07;;;;;;;4.80;2.05;;;;;;;16.73;62.38;94509.31;5022378;28;20024;-79
2023/08/12 04:39:32;;;;;;;10.43;2.55;;;;;;;16.76;62.81;94505.97;5022463;28;20018;-79
2023/08/12 04:41:58;;;;;;;7.53;2.63;;;;;;;16.80;63.08;94504.94;5022395;28;20026;-79
2023/08/12 04:44:23;;;;;;;4.80;2.40;;;;;;;16.82;63.02;94510.81;5023796;28;20033;-79
2023/08/12 04:46:50;;;;;;;7.30;2.10;;;;;;;16.89;62.82;94507.56;5025975;28;20061;-80
2023/08/12 04:49:15;;;;;;;13.63;2.95;;;;;;;16.90;62.67;94506.44;5025772;28;20017;-79
2023/08/12 04:51:41;;;;;;;6.97;2.75;;;;;;;16.94;63.07;94510.03;5026083;28;20112;-79
2023/08/12 04:54:07;;;;;;;19.55;2.90;;;;;;;16.97;62.81;94512.03;5025721;28;20091;-80
2023/08/12 04:56:33;;;;;;;7.13;2.83;;;;;;;17.03;63.50;94507.22;5025651;28;20617;-80
2023/08/12 04:58:58;;;;;;;5.22;2.88;;;;;;;17.11;63.06;94510.91;5025581;28;20125;-80
2023/08/12 05:01:24;;;;;;;9.25;3.25;;;;;;;17.14;63.08;94511.03;5025635;28;20021;-79
2023/08/12 05:03:49;;;;;;;4.78;2.53;;;;;;;17.18;62.31;94503.06;5025429;28;20068;-80
2023/08/12 05:06:15;;;;;;;5.25;2.65;;;;;;;17.21;62.83;94515.84;5025367;28;20036;-80
2023/08/12 05:08:40;;;;;;;8.00;2.40;;;;;;;17.20;62.22;94509.69;5025372;28;20431;-80
2023/08/12 05:11:06;;;;;;;5.28;2.15;;;;;;;17.26;61.79;94518.31;5025131;28;20113;-80
2023/08/12 05:13:31;;;;;;;5.28;2.08;;;;;;;17.24;60.80;94520.56;5025454;28;20021;-80
2023/08/12 05:15:57;;;;;;;7.88;2.03;;;;;;;17.21;60.45;94521.22;5025358;28;20021;-80
2023/08/12 05:18:26;;;;;;;4.72;2.00;;;;;;;17.27;60.64;94519.88;5024116;28;20022;-80
2023/08/12 05:20:52;;;;;;;4.93;1.98;;;;;;;17.32;60.10;94532.31;5025390;28;20037;-80
2023/08/12 05:23:20;;;;;;;6.13;2.67;;;;;;;17.34;60.43;94513.91;5025227;28;20010;-80
2023/08/12 05:25:45;;;;;;;6.72;2.42;;;;;;;17.37;60.42;94522.09;5025103;28;20103;-80
2023/08/12 05:28:11;;;;;;;8.18;2.50;;;;;;;17.41;60.21;94527.59;5025238;28;20022;-80
2023/08/12 05:30:37;;;;;;;12.30;2.58;;;;;;;17.48;60.43;94524.34;5024954;28;20028;-80
2023/08/12 05:33:03;;;;;;;4.05;2.10;;;;;;;17.52;59.53;94522.53;5025092;28;20021;-80
2023/08/12 05:35:28;;;;;;;17.65;2.72;;;;;;;17.54;59.72;94531.81;5023936;28;20024;-80
2023/08/12 05:37:54;;;;;;;3.75;2.05;;;;;;;17.59;59.99;94530.81;5023786;28;20346;-80
2023/08/12 05:40:19;;;;;;;9.30;2.40;;;;;;;17.61;59.90;94534.75;5024792;28;20072;-80
2023/08/12 05:42:44;;;;;;;7.38;2.30;;;;;;;17.64;59.53;94534.06;5024778;28;20068;-80
2023/08/12 05:45:10;;;;;;;9.52;2.63;;;;;;;17.69;59.76;94538.44;5024879;28;20097;-79
2023/08/12 05:47:36;;;;;;;6.70;2.60;;;;;;;17.66;59.63;94525.63;5023633;28;20017;-79
2023/08/12 05:50:02;;;;;;;11.50;2.80;;;;;;;17.64;60.04;94530.56;5024648;28;20323;-79
2023/08/12 05:52:27;;;;;;;5.13;2.58;;;;;;;17.66;60.01;94531.03;5024401;28;20045;-80
2023/08/12 05:54:52;;;;;;;6.05;2.35;;;;;;;17.69;60.62;94529.53;5023119;28;20080;-80
2023/08/12 05:57:18;;;;;;;7.03;2.33;;;;;;;17.59;59.73;94531.59;5023935;28;20014;-79
2023/08/12 05:59:43;;;;;;;14.68;3.08;;;;;;;17.69;60.21;94529.53;5024420;28;20312;-79
2023/08/12 06:02:09;;;;;;;6.45;2.65;;;;;;;17.76;59.76;94530.53;5023573;28;20062;-80
2023/08/12 06:04:35;;;;;;;7.72;2.10;;;;;;;17.87;59.96;94524.69;5024430;28;20209;-80
2023/08/12 06:07:00;;;;;;;4.97;2.53;;;;;;;17.90;59.43;94519.41;5024258;28;20033;-79
2023/08/12 06:09:26;;;;;;;12.68;2.33;;;;;;;17.98;59.90;94515.00;5024019;28;20324;-79
2023/08/12 06:11:51;;;;;;;11.70;2.35;;;;;;;17.88;58.76;94518.19;5024271;28;20621;-79
2023/08/12 06:14:16;;;;;;;8.45;2.65;;;;;;;17.98;58.38;94517.69;5024248;28;20022;-79
2023/08/12 06:16:42;;;;;;;3.60;2.05;;;;;;;18.00;58.82;94508.13;5023240;28;20120;-79
2023/08/12 06:19:07;;;;;;;4.00;1.77;;;;;;;18.03;58.18;94509.34;5024253;28;20025;-79
2023/08/12 06:21:34;;;;;;;5.10;1.98;;;;;;;18.08;57.18;94505.63;5022691;28;20050;-80
2023/08/12 06:24:00;;;;;;;6.95;2.50;;;;;;;18.07;57.42;94512.13;5024028;28;20034;-79
2023/08/12 06:26:25;;;;;;;8.77;2.40;;;;;;;18.12;58.35;94515.38;5024078;28;20297;-79
2023/08/12 06:28:50;;;;;;;9.50;2.50;;;;;;;18.20;57.33;94514.44;5024049;28;20030;-79
2023/08/12 06:31:16;;;;;;;5.57;1.90;;;;;;;18.19;56.24;94509.38;5022678;28;20021;-80
2023/08/12 06:33:41;;;;;;;7.20;2.63;;;;;;;18.25;57.45;94513.41;5024056;28;20022;-79
2023/08/12 06:36:07;;;;;;;9.70;2.60;;;;;;;18.24;55.33;94499.13;5023764;28;20029;-79
2023/08/12 06:38:32;;;;;;;2.88;1.83;;;;;;;18.22;56.40;94496.00;5023754;28;20034;-79
2023/08/12 06:40:58;;;;;;;4.95;2.03;;;;;;;18.32;56.24;94512.78;5023643;28;20026;-80
2023/08/12 06:43:23;;;;;;;7.15;2.47;;;;;;;18.38;56.45;94495.25;5023725;28;20092;-79
2023/08/12 06:45:48;;;;;;;13.25;2.25;;;;;;;18.47;56.39;94493.16;5023708;28;20059;-79
2023/08/12 06:48:14;;;;;;;10.02;2.58;;;;;;;18.56;56.42;94496.47;5023636;28;20056;-79
2023/08/12 06:50:39;;;;;;;5.38;2.30;;;;;;;18.70;55.88;94490.63;5023614;28;20036;-79
2023/08/12 06:53:05;;;;;;;6.57;2.20;;;;;;;18.77;54.82;94490.81;5023535;28;20338;-80
2023/08/12 06:55:30;;;;;;;5.53;1.95;;;;;;;18.89;55.74;94492.66;5023495;28;20093;-80
2023/08/12 06:57:56;;;;;;;14.65;2.20;;;;;;;18.99;54.44;94496.72;5023498;28;20037;-79
2023/08/12 07:00:21;;;;;;;12.60;2.47;;;;;;;19.03;55.17;94498.38;5023317;28;20025;-79
2023/08/12 07:02:47;;;;;;;3.70;2.10;;;;;;;19.13;54.63;94497.06;5022057;28;20037;-80
2023/08/12 07:05:12;;;;;;;8.95;2.40;;;;;;;19.25;54.54;94496.16;5023415;28;20032;-80
2023/08/12 07:07:38;;;;;;;4.70;2.10;;;;;;;19.28;53.70;94494.69;5022348;28;20025;-80
2023/08/12 07:10:05;;;;;;;4.55;2.28;;;;;;;19.33;53.89;94497.88;5023040;28;20049;-79
2023/08/12 07:12:30;;;;;;;5.43;2.30;;;;;;;19.42;54.39;94498.47;5023063;28;20037;-80
2023/08/12 07:14:56;;;;;;;5.63;2.10;;;;;;;19.37;52.64;94484.44;5022090;28;20026;-80
2023/08/12 07:17:21;;;;;;;10.05;2.30;;;;;;;19.41;54.27;94496.88;5023214;28;20327;-80
2023/08/12 07:19:47;;;;;;;12.23;2.50;;;;;;;19.46;53.84;94493.16;5023198;28;20260;-80
2023/08/12 07:22:12;;;;;;;4.35;2.20;;;;;;;19.54;54.15;94491.34;5023100;28;20026;-80
2023/08/12 07:24:38;;;;;;;7.78;2.33;;;;;;;19.59;52.89;94491.09;5023161;28;20025;-80
2023/08/12 07:27:03;;;;;;;8.98;2.58;;;;;;;19.62;52.47;94493.06;5021943;28;20121;-80
2023/08/12 07:29:29;;;;;;;9.43;3.97;;;;;;;19.64;52.19;94490.78;5023013;28;20038;-79
2023/08/12 07:31:54;;;;;;;7.93;2.35;;;;;;;19.71;51.42;94492.91;5022738;28;20033;-79
2023/08/12 07:34:20;;;;;;;7.97;2.42;;;;;;;19.81;51.26;94492.34;5023021;28;20336;-80
2023/08/12 07:36:46;;;;;;;4.47;2.50;;;;;;;19.90;51.22;94490.19;5021769;28;20068;-80
2023/08/12 07:39:11;;;;;;;7.72;2.05;;;;;;;19.96;50.50;94493.41;5021982;28;20029;-80
2023/08/12 07:41:37;;;;;;;10.23;2.40;;;;;;;20.02;50.36;94491.97;5021714;28;20220;-80
2023/08/12 07:44:03;;;;;;;9.40;3.53;;;;;;;20.11;49.63;94489.03;5023002;28;20057;-80
2023/08/12 07:46:29;;;;;;;3.95;2.03;;;;;;;20.19;49.46;94486.13;5022814;28;20205;-80
2023/08/12 07:48:56;;;;;;;5.72;2.17;;;;;;;20.22;48.52;94490.81;5021666;28;20030;-80
2023/08/12 07:51:21;;;;;;;4.40;2.13;;;;;;;20.28;48.48;94485.09;5022723;28;20033;-79
2023/08/12 07:53:46;;;;;;;4.43;2.40;;;;;;;20.35;47.68;94483.31;5022670;28;20030;-80
2023/08/12 07:56:12;;;;;;;3.53;1.90;;;;;;;20.44;48.30;94475.72;5022893;28;20057;-80
2023/08/12 07:58:37;;;;;;;11.07;2.45;;;;;;;20.56;49.63;94471.28;5021722;28;20025;-80
2023/08/12 08:01:04;;;;;;;6.63;2.47;;;;;;;20.61;49.28;94466.34;5022777;28;20071;-80
2023/08/12 08:03:30;;;;;;;4.95;2.47;;;;;;;20.70;49.63;94470.75;5022640;28;20279;-80
2023/08/12 08:05:55;;;;;;;4.55;2.60;;;;;;;20.76;49.81;94467.38;5022521;28;20034;-80
2023/08/12 08:08:21;;;;;;;6.10;2.47;;;;;;;20.85;49.47;94467.13;5021456;28;20026;-80
2023/08/12 08:10:46;;;;;;;4.88;2.53;;;;;;;20.95;48.74;94466.50;5022486;28;20050;-80
2023/08/12 08:13:12;;;;;;;3.60;2.28;;;;;;;20.90;46.77;94461.38;5022576;28;20033;-80
2023/08/12 08:15:37;;;;;;;3.65;2.08;;;;;;;20.97;46.54;94466.16;5022630;28;20022;-80
2023/08/12 08:18:04;;;;;;;3.63;2.08;;;;;;;21.04;46.24;94468.94;5022474;28;20095;-80
2023/08/12 08:20:30;;;;;;;6.00;2.08;;;;;;;21.12;46.15;94469.84;5025604;28;20255;-80
2023/08/12 08:22:55;;;;;;;8.93;2.42;;;;;;;21.20;46.51;94468.81;5025028;28;20189;-80
2023/08/12 08:25:21;;;;;;;4.55;2.42;;;;;;;21.29;45.57;94469.31;5026316;28;20045;-80
2023/08/12 08:27:47;;;;;;;10.05;2.35;;;;;;;21.38;46.18;94466.34;5026220;28;20029;-79
2023/08/12 08:30:13;;;;;;;4.25;1.85;;;;;;;21.46;47.00;94472.69;5026444;28;20021;-80
2023/08/12 08:32:38;;;;;;;11.88;2.53;;;;;;;21.55;45.23;94465.03;5024842;28;20096;-81
2023/08/12 08:35:04;;;;;;;11.02;3.10;;;;;;;21.63;44.99;94469.41;5026040;28;20060;-80
2023/08/12 08:37:30;;;;;;;6.88;2.25;;;;;;;21.69;44.79;94459.78;5024935;28;20013;-80
2023/08/12 08:39:56;;;;;;;5.32;2.10;;;;;;;21.80;44.49;94459.94;5025962;28;20104;-80
2023/08/12 08:42:24;;;;;;;3.95;2.45;;;;;;;21.78;45.14;94452.16;5025872;28;20021;-80
2023/08/12 08:44:51;;;;;;;5.85;2.75;;;;;;;;;;5024652;28;20022;-80
2023/08/12 08:47:25;;;;;;;4.22;2.42;;;;;;;21.94;42.75;94453.88;5024406;28;20030;-80
2023/08/12 08:49:50;;;;;;;6.18;2.25;;;;;;;21.95;42.25;94450.00;5025705;28;20316;-80
2023/08/12 08:52:17;;;;;;;7.68;2.08;;;;;;;21.97;42.96;94447.72;5024320;28;20018;-79
2023/08/12 08:54:42;;;;;;;4.18;2.22;;;;;;;21.99;43.16;94446.19;5025902;28;20331;-80
2023/08/12 08:57:08;;;;;;;8.43;1.75;;;;;;;22.06;43.63;94444.69;5025614;28;20018;-80
2023/08/12 08:59:34;;;;;;;4.68;1.85;;;;;;;22.26;43.41;94442.59;5024192;28;20028;-80
2023/08/12 09:02:00;;;;;;;3.45;2.03;;;;;;;22.46;43.51;94443.94;5025420;28;20026;-80
2023/08/12 09:04:27;;;;;;;4.70;1.98;;;;;;;22.65;42.63;94442.94;5025498;28;20053;-80
2023/08/12 09:06:53;;;;;;;6.93;2.17;;;;;;;22.82;41.56;94444.25;5025381;28;20044;-80
2023/08/12 09:09:20;;;;;;;6.70;2.40;;;;;;;22.90;41.12;94434.19;5025102;28;20093;-80
2023/08/12 09:11:48;;;;;;;9.00;2.13;;;;;;;22.98;41.15;94435.81;5025195;28;20022;-80
2023/08/12 09:14:14;;;;;;;4.90;2.17;;;;;;;23.03;40.42;94435.50;5025419;28;20361;-80
2023/08/12 09:16:39;;;;;;;7.22;2.28;;;;;;;22.99;40.34;94442.81;5025428;28;20193;-80
2023/08/12 09:19:05;;;;;;;3.17;1.88;;;;;;;22.93;40.82;94431.50;5023986;28;20109;-80
2023/08/12 09:21:31;;;;;;;4.68;2.30;;;;;;;22.78;40.96;94433.34;5024976;28;20018;-80
2023/08/12 09:23:56;;;;;;;8.70;1.63;;;;;;;22.82;40.70;94430.66;5025326;28;20022;-80
2023/08/12 09:26:21;;;;;;;6.75;2.10;;;;;;;22.76;41.35;94426.75;5023827;28;20018;-80
2023/08/12 09:28:48;;;;;;;10.73;2.05;;;;;;;22.87;41.49;94426.81;5023723;28;20104;-80
2023/08/12 09:31:25;;;;;;;5.00;2.17;;;;;;;22.97;42.09;94426.09;5023626;28;20022;-80
2023/08/12 09:33:51;;;;;;;5.57;2.00;;;;;;;23.03;40.47;94421.91;5024723;28;20101;-80
2023/08/12 09:36:17;;;;;;;3.83;2.15;;;;;;;23.08;40.32;94415.31;5024809;28;20236;-80
2023/08/12 09:38:45;;;;;;;4.85;2.08;;;;;;;23.20;40.00;94415.78;5024774;28;20216;-80
2023/08/12 09:41:11;;;;;;;5.47;2.10;;;;;;;23.14;40.65;94413.78;5025024;28;20094;-80
2023/08/12 09:43:43;;;;;;;4.57;1.80;;;;;;;23.18;40.34;94409.97;5024756;28;20169;-80
2023/08/12 09:46:13;;;;;;;3.72;1.90;;;;;;;23.32;40.55;94406.50;5024828;28;20099;-80
2023/08/12 09:48:39;;;;;;;4.28;2.03;;;;;;;23.44;39.83;94406.19;5024613;28;20021;-80
2023/08/12 09:51:05;;;;;;;5.85;1.80;;;;;;;23.63;38.61;94407.06;5023301;28;20060;-80
2023/08/12 09:53:32;;;;;;;3.67;1.77;;;;;;;23.76;38.02;94400.09;5024467;28;20026;-80
2023/08/12 09:56:10;;;;;;;4.35;1.65;;;;;;;23.90;38.59;94404.06;5024475;28;20358;-80
2023/08/12 09:58:39;;;;;;;7.50;1.92;;;;;;;24.06;38.84;94393.59;5024445;28;20405;-80
2023/08/12 10:01:06;;;;;;;3.28;1.83;;;;;;;24.22;38.23;94396.72;5024389;28;20018;-79
2023/08/12 10:03:33;;;;;;;3.08;1.95;;;;;;;24.16;36.92;94394.75;5024350;28;20033;-79
2023/08/12 10:05:59;;;;;;;6.43;2.95;;;;;;;24.17;36.96;94385.44;5022954;28;20327;-80
2023/08/12 10:08:27;;;;;;;3.17;1.73;;;;;;;24.18;37.48;94392.44;5024297;28;20084;-80
2023/08/12 10:10:52;;;;;;;3.70;1.92;;;;;;;24.12;37.32;94383.88;5024121;28;20041;-80
2023/08/12 10:13:18;;;;;;;3.80;2.10;;;;;;;24.16;37.07;94384.66;5024257;28;20366;-80
2023/08/12 10:15:44;;;;;;;2.55;1.67;;;;;;;24.18;36.70;94374.16;5022961;28;20014;-80
2023/08/12 10:18:10;;;;;;;6.28;2.03;;;;;;;24.19;37.92;94378.44;5024156;28;20021;-80
2023/08/12 10:20:37;;;;;;;4.68;1.63;;;;;;;24.25;37.65;94383.50;5022963;28;20021;-80
2023/08/12 10:23:02;;;;;;;2.83;1.92;;;;;;;24.13;37.54;94379.19;5024092;28;20048;-80
2023/08/12 10:25:33;;;;;;;4.32;2.10;;;;;;;24.25;38.37;94378.06;5023803;28;20025;-80
2023/08/12 10:27:58;;;;;;;4.72;2.00;;;;;;;24.44;37.70;94366.75;5023983;28;20100;-80
2023/08/12 10:30:27;;;;;;;4.18;1.95;;;;;;;24.56;37.57;94369.13;5024090;28;20215;-80
2023/08/12 10:32:53;;;;;;;3.65;1.67;;;;;;;24.61;36.71;94371.47;5023836;28;20071;-80
2023/08/12 10:35:18;;;;;;;6.75;2.13;;;;;;;24.75;37.02;94375.34;5022680;28;20136;-80
2023/08/12 10:37:50;;;;;;;3.95;2.05;;;;;;;24.86;36.06;94359.75;5024079;28;20013;-80
2023/08/12 10:40:23;;;;;;;4.85;1.52;;;;;;;24.88;35.60;94357.41;5022708;28;20030;-80
2023/08/12 10:42:49;;;;;;;3.67;1.60;;;;;;;25.07;35.36;94363.59;5023446;28;20029;-80
2023/08/12 10:45:17;;;;;;;4.50;1.88;;;;;;;25.14;34.69;94366.31;5022399;28;20033;-80
2023/08/12 10:48:09;;;;;;;3.05;1.67;;;;;;;25.07;34.52;94352.69;5022580;28;20197;-80
2023/08/12 10:50:34;;;;;;;5.13;1.60;;;;;;;25.10;33.55;94344.50;5022465;28;20091;-80
2023/08/12 10:53:31;;;;;;;6.97;1.50;;;;;;;25.15;34.15;94355.00;5023595;28;20304;-80
2023/08/12 10:56:04;;;;;;;2.88;1.65;;;;;;;25.05;33.63;94344.13;5023504;28;20053;-79
2023/08/12 10:58:35;;;;;;;4.30;1.55;;;;;;;25.14;33.08;94341.78;5023235;28;20148;-80
2023/08/12 11:01:01;;;;;;;5.32;1.90;;;;;;;25.29;34.50;94346.03;5023395;28;20022;-80
2023/08/12 11:03:33;;;;;;;5.60;1.90;;;;;;;25.43;33.53;94340.50;5023258;28;20022;-80
2023/08/12 11:05:59;;;;;;;3.67;1.75;;;;;;;25.57;32.56;94333.44;5023265;28;20022;-80
2023/08/12 11:08:27;;;;;;;2.55;1.58;;;;;;;25.61;31.86;94334.22;5023295;28;20025;-79
2023/08/12 11:10:56;;;;;;;2.50;1.42;;;;;;;25.63;32.26;94337.31;5022914;28;20072;-80
2023/08/12 11:13:21;;;;;;;4.45;1.45;;;;;;;25.61;31.77;94329.50;5023267;28;20018;-79
2023/08/12 11:15:47;;;;;;;2.65;1.25;;;;;;;25.79;33.51;94328.66;5023176;28;20017;-80
2023/08/12 11:18:16;;;;;;;3.08;1.38;;;;;;;25.99;33.58;94315.28;5023184;28;20021;-80
2023/08/12 11:20:42;;;;;;;4.35;1.90;;;;;;;26.02;32.55;94319.94;5022970;28;20068;-80
2023/08/12 11:23:08;;;;;;;3.45;1.75;;;;;;;26.08;32.77;94314.84;5023120;28;20037;-80
2023/08/12 11:25:35;;;;;;;3.80;1.90;;;;;;;26.16;32.23;94322.56;5022981;28;20042;-80
2023/08/12 11:28:01;;;;;;;3.65;1.77;;;;;;;26.26;32.85;94318.22;5023016;28;20021;-80
2023/08/12 11:30:27;;;;;;;5.53;1.65;;;;;;;26.41;33.57;94310.66;5022853;28;20085;-80